Time;durP1;ratioP1;P1;durP2;ratioP2;P2;SDS_P1;SDS_P2;PMS_P1;PMS_P2;Temp;Humidity;BMP_temperature;BMP_pressure;BME280_temperature;BME280_humidity;BME280_pressure;Samples;Min_cycle;Max_cycle;Signal;HPM_P1;HPM_P2
2024/02/01 00:02:18;;;;;;;;;;;21.40;32.50;;;;;;5074164;28;20275;-52
2024/02/01 00:04:45;;;;;;;;;;;21.40;32.50;;;;;;5074642;28;19930;-49
2024/02/01 00:07:12;;;;;;;;;;;21.40;32.50;;;;;;5073679;28;20042;-49
2024/02/01 00:09:39;;;;;;;;;;;21.40;32.50;;;;;;5074352;28;20397;-50
2024/02/01 00:12:06;;;;;;;;;;;21.40;32.50;;;;;;5073004;28;20449;-50
2024/02/01 00:14:33;;;;;;;;;;;21.40;32.50;;;;;;5074328;28;19928;-50
2024/02/01 00:17:00;;;;;;;;;;;21.40;32.50;;;;;;5073339;28;20006;-45
2024/02/01 00:19:27;;;;;;;;;;;21.40;32.40;;;;;;5073483;28;19932;-50
2024/02/01 00:21:54;;;;;;;;;;;21.40;32.50;;;;;;5071938;28;19955;-45
2024/02/01 00:24:21;;;;;;;;;;;21.50;32.40;;;;;;5073106;28;19924;-47
2024/02/01 00:26:47;;;;;;;;;;;21.40;32.30;;;;;;5054347;28;19970;-47
2024/02/01 00:29:14;;;;;;;;;;;21.40;32.30;;;;;;5056396;28;19924;-51
2024/02/01 00:31:41;;;;;;;;;;;21.40;32.40;;;;;;5072824;28;20553;-47
2024/02/01 00:34:08;;;;;;;;;;;21.40;32.30;;;;;;5073917;28;19970;-45
2024/02/01 00:36:35;;;;;;;;;;;21.40;32.30;;;;;;5072473;28;19928;-50
2024/02/01 00:39:02;;;;;;;;;;;21.40;32.30;;;;;;5074320;28;20015;-47
2024/02/01 00:41:29;;;;;;;;;;;21.40;32.30;;;;;;5073314;28;19964;-48
2024/02/01 00:43:56;;;;;;;;;;;21.40;32.40;;;;;;5072740;28;19928;-47
2024/02/01 00:46:23;;;;;;;;;;;21.40;32.40;;;;;;5073174;28;19928;-50
2024/02/01 00:48:50;;;;;;;;;;;21.40;32.30;;;;;;5073670;28;19924;-50
2024/02/01 00:51:17;;;;;;;;;;;21.40;32.30;;;;;;5072126;28;19925;-51
2024/02/01 00:53:44;;;;;;;;;;;21.30;32.30;;;;;;5073809;28;20423;-51
2024/02/01 00:56:11;;;;;;;;;;;21.30;32.30;;;;;;5072269;28;19978;-48
2024/02/01 00:58:38;;;;;;;;;;;21.30;32.30;;;;;;5073585;28;19924;-50
2024/02/01 01:01:04;;;;;;;;;;;21.30;32.30;;;;;;5072237;28;19925;-50
2024/02/01 01:03:32;;;;;;;;;;;21.30;32.30;;;;;;5072367;28;20370;-50
2024/02/01 01:05:59;;;;;;;;;;;21.30;32.30;;;;;;5073512;28;20293;-45
2024/02/01 01:08:27;;;;;;;;;;;21.30;32.30;;;;;;5072622;28;20014;-52
2024/02/01 01:10:54;;;;;;;;;;;21.30;32.30;;;;;;5073414;28;20370;-50
2024/02/01 01:13:21;;;;;;;;;;;21.30;32.30;;;;;;5072233;28;20349;-49
2024/02/01 01:15:48;;;;;;;;;;;21.30;32.20;;;;;;5073028;28;20028;-49
2024/02/01 01:18:15;;;;;;;;;;;21.30;32.30;;;;;;5072625;28;20682;-46
2024/02/01 01:20:42;;;;;;;;;;;21.30;32.30;;;;;;5073009;28;19928;-51
2024/02/01 01:23:09;;;;;;;;;;;21.30;32.30;;;;;;5071270;28;19924;-51
2024/02/01 01:25:36;;;;;;;;;;;21.30;32.30;;;;;;5071827;28;19971;-45
2024/02/01 01:28:03;;;;;;;;;;;21.30;32.30;;;;;;5071642;28;20019;-49
2024/02/01 01:30:30;;;;;;;;;;;21.30;32.20;;;;;;5073473;28;19986;-50
2024/02/01 01:32:57;;;;;;;;;;;21.30;32.20;;;;;;5071825;28;19994;-50
2024/02/01 01:35:24;;;;;;;;;;;21.30;32.20;;;;;;5073017;28;19971;-50
2024/02/01 01:37:51;;;;;;;;;;;21.30;32.10;;;;;;5071620;28;19978;-53
2024/02/01 01:40:18;;;;;;;;;;;21.30;32.20;;;;;;5073243;28;19924;-52
2024/02/01 01:42:45;;;;;;;;;;;21.30;32.20;;;;;;5072476;28;19933;-51
2024/02/01 01:45:12;;;;;;;;;;;21.30;32.20;;;;;;5072228;28;19924;-51
2024/02/01 01:47:40;;;;;;;;;;;21.20;32.10;;;;;;5072565;28;19986;-48
2024/02/01 01:50:07;;;;;;;;;;;21.20;32.10;;;;;;5071068;28;19933;-47
2024/02/01 01:52:35;;;;;;;;;;;21.20;32.10;;;;;;5071287;28;19951;-51
2024/02/01 01:55:03;;;;;;;;;;;21.20;32.10;;;;;;5071998;28;20435;-50
2024/02/01 01:57:30;;;;;;;;;;;21.20;32.10;;;;;;5072049;28;19924;-50
2024/02/01 01:59:58;;;;;;;;;;;21.20;32.10;;;;;;5071567;28;19985;-49
2024/02/01 02:02:26;;;;;;;;;;;21.20;32.10;;;;;;5072637;28;19970;-49
2024/02/01 02:04:54;;;;;;;;;;;21.20;32.20;;;;;;5075643;28;19924;-52
2024/02/01 02:07:21;;;;;;;;;;;21.20;32.10;;;;;;5075091;28;20349;-51
2024/02/01 02:09:48;;;;;;;;;;;21.20;32.10;;;;;;5075700;28;20266;-52
2024/02/01 02:12:15;;;;;;;;;;;21.20;32.20;;;;;;5057319;28;19932;-51
2024/02/01 02:14:42;;;;;;;;;;;21.20;32.10;;;;;;5076415;28;19935;-50
2024/02/01 02:17:08;;;;;;;;;;;21.20;32.20;;;;;;5076639;28;19925;-50
2024/02/01 02:19:36;;;;;;;;;;;21.20;32.10;;;;;;5074686;28;19925;-52
2024/02/01 02:22:03;;;;;;;;;;;21.20;32.00;;;;;;5076465;28;19931;-52
2024/02/01 02:24:30;;;;;;;;;;;21.20;32.10;;;;;;5076404;28;19928;-51
2024/02/01 02:27:03;;;;;;;;;;;21.20;32.20;;;;;;5076755;28;19925;-51
2024/02/01 02:29:30;;;;;;;;;;;21.20;32.10;;;;;;5076523;28;19970;-51
2024/02/01 02:31:57;;;;;;;;;;;21.20;32.10;;;;;;5076250;28;19924;-51
2024/02/01 02:34:24;;;;;;;;;;;21.20;32.00;;;;;;5076558;28;19998;-51
2024/02/01 02:36:51;;;;;;;;;;;21.20;32.00;;;;;;5076343;28;19925;-54
2024/02/01 02:39:18;;;;;;;;;;;21.20;32.00;;;;;;5076202;28;19925;-58
2024/02/01 02:41:45;;;;;;;;;;;21.20;32.00;;;;;;5076649;28;19936;-54
2024/02/01 02:44:13;;;;;;;;;;;21.20;32.00;;;;;;5075778;28;19929;-61
2024/02/01 02:46:40;;;;;;;;;;;21.20;31.90;;;;;;5075411;28;20023;-54
2024/02/01 02:49:08;;;;;;;;;;;21.20;31.90;;;;;;5076261;28;19932;-54
2024/02/01 02:51:39;;;;;;;;;;;21.20;31.90;;;;;;5075648;28;20278;-58
2024/02/01 02:54:09;;;;;;;;;;;21.20;31.90;;;;;;5076025;28;19925;-53
2024/02/01 02:56:38;;;;;;;;;;;21.10;31.90;;;;;;5075034;28;19924;-52
2024/02/01 02:59:05;;;;;;;;;;;21.10;31.90;;;;;;5076208;28;19929;-59
2024/02/01 03:01:32;;;;;;;;;;;21.10;31.90;;;;;;5075637;28;20378;-46
2024/02/01 03:03:59;;;;;;;;;;;21.10;31.90;;;;;;5075362;28;19972;-45
2024/02/01 03:06:26;;;;;;;;;;;21.10;31.90;;;;;;5075221;28;19924;-49
2024/02/01 03:08:53;;;;;;;;;;;21.10;31.90;;;;;;5075768;28;19924;-47
2024/02/01 03:11:21;;;;;;;;;;;21.10;31.90;;;;;;5075069;28;19955;-50
2024/02/01 03:13:48;;;;;;;;;;;21.10;31.90;;;;;;5075433;28;20026;-52
2024/02/01 03:16:16;;;;;;;;;;;21.10;31.90;;;;;;5075581;28;19933;-51
2024/02/01 03:18:47;;;;;;;;;;;21.10;31.90;;;;;;5075717;28;20413;-52
2024/02/01 03:21:15;;;;;;;;;;;21.10;31.90;;;;;;5075740;28;19928;-50
2024/02/01 03:23:44;;;;;;;;;;;21.10;31.90;;;;;;5075900;28;19925;-49
2024/02/01 03:26:11;;;;;;;;;;;21.10;31.90;;;;;;5075320;28;20289;-48
2024/02/01 03:28:41;;;;;;;;;;;21.10;31.90;;;;;;5074404;28;20292;-45
2024/02/01 03:31:09;;;;;;;;;;;21.10;31.90;;;;;;5074911;28;19924;-44
2024/02/01 03:33:39;;;;;;;;;;;21.10;31.90;;;;;;5075610;28;19999;-44
2024/02/01 03:36:07;;;;;;;;;;;21.10;31.90;;;;;;5074998;28;19954;-47
2024/02/01 03:38:35;;;;;;;;;;;21.10;31.90;;;;;;5075149;28;19974;-46
2024/02/01 03:41:04;;;;;;;;;;;21.10;31.80;;;;;;5075150;28;19924;-50
2024/02/01 03:43:31;;;;;;;;;;;21.20;31.80;;;;;;5074033;28;20019;-49
2024/02/01 03:45:58;;;;;;;;;;;21.10;31.70;;;;;;5074287;28;19924;-45
2024/02/01 03:48:25;;;;;;;;;;;21.10;31.70;;;;;;5074519;28;20348;-49
2024/02/01 03:50:52;;;;;;;;;;;21.10;31.70;;;;;;5056861;28;19939;-44
2024/02/01 03:53:19;;;;;;;;;;;21.10;31.70;;;;;;5074617;28;19924;-46
2024/02/01 03:55:49;;;;;;;;;;;21.10;31.70;;;;;;5073171;28;19930;-44
2024/02/01 03:58:21;;;;;;;;;;;21.10;31.80;;;;;;5073538;28;20373;-48
2024/02/01 04:00:50;;;;;;;;;;;21.10;31.80;;;;;;5074578;28;20412;-46
2024/02/01 04:03:17;;;;;;;;;;;21.00;31.80;;;;;;5072858;28;20382;-44
2024/02/01 04:05:45;;;;;;;;;;;21.00;31.80;;;;;;5073607;28;20395;-49
2024/02/01 04:08:19;;;;;;;;;;;21.00;31.70;;;;;;5074296;28;20378;-46
2024/02/01 04:10:46;;;;;;;;;;;21.00;31.70;;;;;;5073606;28;19925;-45
2024/02/01 04:13:13;;;;;;;;;;;21.00;31.80;;;;;;5074433;28;19924;-50
2024/02/01 04:15:40;;;;;;;;;;;21.00;31.70;;;;;;5073383;28;19932;-49
2024/02/01 04:18:07;;;;;;;;;;;21.00;31.80;;;;;;5073352;28;20443;-48
2024/02/01 04:20:35;;;;;;;;;;;21.00;31.70;;;;;;5073284;28;19982;-51
2024/02/01 04:23:02;;;;;;;;;;;21.00;31.80;;;;;;5074208;28;20393;-46
2024/02/01 04:25:29;;;;;;;;;;;21.00;31.70;;;;;;5073368;28;19928;-48
2024/02/01 04:27:56;;;;;;;;;;;21.00;31.70;;;;;;5074026;28;20034;-45
2024/02/01 04:30:24;;;;;;;;;;;21.00;31.80;;;;;;5072645;28;20357;-45
2024/02/01 04:32:51;;;;;;;;;;;21.00;31.70;;;;;;5074192;28;19936;-45
2024/02/01 04:35:18;;;;;;;;;;;21.00;31.70;;;;;;5072364;28;19928;-47
2024/02/01 04:37:52;;;;;;;;;;;21.00;31.70;;;;;;5072520;28;19983;-48
2024/02/01 04:40:23;;;;;;;;;;;21.00;31.70;;;;;;5072756;28;19924;-45
2024/02/01 04:42:56;;;;;;;;;;;21.10;31.50;;;;;;5072092;28;20201;-45
2024/02/01 04:45:23;;;;;;;;;;;21.00;31.10;;;;;;5074351;28;19967;-48
2024/02/01 04:47:50;;;;;;;;;;;21.00;31.00;;;;;;5072553;28;19943;-50
2024/02/01 04:50:17;;;;;;;;;;;21.00;30.90;;;;;;5071781;28;20480;-51
2024/02/01 04:52:43;;;;;;;;;;;21.00;30.80;;;;;;5072519;28;20019;-51
2024/02/01 04:55:10;;;;;;;;;;;21.00;30.70;;;;;;5074044;28;20008;-52
2024/02/01 04:57:38;;;;;;;;;;;21.00;30.60;;;;;;5072578;28;20046;-52
2024/02/01 05:00:13;;;;;;;;;;;21.00;30.50;;;;;;5073658;28;19928;-52
2024/02/01 05:02:41;;;;;;;;;;;21.00;30.40;;;;;;5071417;28;19932;-48
2024/02/01 05:05:12;;;;;;;;;;;21.00;30.30;;;;;;5072874;28;19928;-49
2024/02/01 05:07:39;;;;;;;;;;;21.10;30.30;;;;;;5071706;28;20286;-48
2024/02/01 05:10:07;;;;;;;;;;;21.10;30.20;;;;;;5075980;28;19978;-46
2024/02/01 05:12:35;;;;;;;;;;;21.10;30.10;;;;;;5072581;28;20362;-48
2024/02/01 05:15:03;;;;;;;;;;;21.10;30.10;;;;;;5071843;28;20011;-46
2024/02/01 05:17:30;;;;;;;;;;;21.10;30.00;;;;;;5072691;28;19951;-45
2024/02/01 05:19:59;;;;;;;;;;;21.10;30.00;;;;;;5073106;28;19998;-46
2024/02/01 05:22:26;;;;;;;;;;;21.10;30.00;;;;;;5072997;28;19935;-48
2024/02/01 05:24:54;;;;;;;;;;;21.00;30.00;;;;;;5071970;28;19975;-50
2024/02/01 05:27:22;;;;;;;;;;;21.00;30.00;;;;;;5072456;28;20040;-44
2024/02/01 05:29:52;;;;;;;;;;;21.00;30.00;;;;;;5073327;28;19947;-46
2024/02/01 05:32:19;;;;;;;;;;;21.00;30.00;;;;;;5067363;28;19975;-46
2024/02/01 05:34:46;;;;;;;;;;;21.00;30.00;;;;;;5073510;28;19928;-45
2024/02/01 05:37:13;;;;;;;;;;;21.00;30.00;;;;;;5070438;28;19924;-51
2024/02/01 05:39:44;;;;;;;;;;;21.00;30.00;;;;;;5072721;28;19928;-48
2024/02/01 05:42:14;;;;;;;;;;;21.00;30.00;;;;;;5066540;28;19986;-46
2024/02/01 05:44:41;;;;;;;;;;;21.00;30.00;;;;;;5071626;28;19932;-44
2024/02/01 05:47:08;;;;;;;;;;;21.00;30.00;;;;;;5069638;28;19928;-45
2024/02/01 05:49:35;;;;;;;;;;;21.00;29.90;;;;;;5070153;28;20433;-45
2024/02/01 05:52:03;;;;;;;;;;;21.10;29.90;;;;;;5070551;28;19929;-49
2024/02/01 05:54:31;;;;;;;;;;;21.10;29.90;;;;;;5072128;28;19955;-48
2024/02/01 05:56:58;;;;;;;;;;;21.10;29.90;;;;;;5070544;28;19932;-44
2024/02/01 05:59:25;;;;;;;;;;;21.10;29.80;;;;;;5071574;28;19928;-47
2024/02/01 06:01:52;;;;;;;;;;;21.10;29.80;;;;;;5071385;28;19936;-45
2024/02/01 06:04:19;;;;;;;;;;;21.10;29.80;;;;;;5068462;28;19924;-45
2024/02/01 06:06:47;;;;;;;;;;;21.10;29.80;;;;;;5071300;28;20339;-43
2024/02/01 06:09:15;;;;;;;;;;;21.10;29.80;;;;;;5070744;28;19932;-45
2024/02/01 06:11:48;;;;;;;;;;;21.10;29.80;;;;;;5067642;28;19932;-44
2024/02/01 06:14:16;;;;;;;;;;;21.10;29.80;;;;;;5069078;28;19935;-48
2024/02/01 06:16:43;;;;;;;;;;;21.10;29.80;;;;;;5070205;28;20350;-45
2024/02/01 06:19:10;;;;;;;;;;;21.10;29.70;;;;;;5053906;28;19934;-51
2024/02/01 06:21:38;;;;;;;;;;;21.10;29.80;;;;;;5062627;28;19925;-49
2024/02/01 06:24:05;;;;;;;;;;;21.10;29.80;;;;;;5071095;28;19924;-53
2024/02/01 06:26:32;;;;;;;;;;;21.10;29.80;;;;;;5064601;28;20474;-54
2024/02/01 06:29:09;;;;;;;;;;;21.10;29.90;;;;;;5066930;28;19970;-52
2024/02/01 06:31:40;;;;;;;;;;;21.10;30.00;;;;;;5067008;28;19925;-55
2024/02/01 06:34:08;;;;;;;;;;;21.20;30.00;;;;;;5063035;28;19925;-49
2024/02/01 06:36:40;;;;;;;;;;;21.20;30.00;;;;;;5059719;28;20976;-54
2024/02/01 06:39:37;;;;;;;;;;;21.20;30.40;;;;;;5059429;28;19970;-55
2024/02/01 06:42:13;;;;;;;;;;;21.30;30.70;;;;;;5062060;28;19937;-54
2024/02/01 06:44:43;;;;;;;;;;;21.30;30.80;;;;;;5063628;28;20096;-55
2024/02/01 06:47:23;;;;;;;;;;;21.30;31.00;;;;;;5061772;28;19974;-50
2024/02/01 06:50:02;;;;;;;;;;;21.30;31.10;;;;;;5063248;28;20720;-55
2024/02/01 06:52:39;;;;;;;;;;;21.40;31.20;;;;;;5064588;28;19932;-58
2024/02/01 06:57:53;;;;;;;;;;;21.50;31.30;;;;;;5069350;28;19971;-49
2024/02/01 07:03:21;;;;;;;;;;;21.60;31.00;;;;;;5063282;28;19931;-50
2024/02/01 07:06:06;;;;;;;;;;;21.70;30.80;;;;;;5063368;28;19990;-50
2024/02/01 07:08:52;;;;;;;;;;;21.70;30.60;;;;;;5062805;28;20716;-53
2024/02/01 07:11:28;;;;;;;;;;;21.80;30.50;;;;;;5061931;28;19946;-55
2024/02/01 07:14:08;;;;;;;;;;;21.80;30.50;;;;;;5062962;28;19924;-54
2024/02/01 07:16:38;;;;;;;;;;;21.80;30.90;;;;;;5047881;28;20007;-47
2024/02/01 07:24:59;;;;;;;;;;;21.90;31.10;;;;;;5066238;28;19954;-48
2024/02/01 07:58:07;;;;;;;;;;;22.20;30.40;;;;;;5062032;28;19932;-55
2024/02/01 08:00:35;;;;;;;;;;;22.20;30.40;;;;;;5060938;28;19994;-57
2024/02/01 08:08:40;;;;;;;;;;;22.40;31.40;;;;;;5061821;28;20324;-57
2024/02/01 08:11:07;;;;;;;;;;;22.50;31.30;;;;;;5061966;28;19942;-57
2024/02/01 08:13:35;;;;;;;;;;;22.50;31.20;;;;;;5061369;28;19941;-56
2024/02/01 08:16:02;;;;;;;;;;;22.60;31.10;;;;;;5063614;28;20821;-53
2024/02/01 08:18:37;;;;;;;;;;;22.60;30.90;;;;;;5065726;28;20031;-56
2024/02/01 08:21:04;;;;;;;;;;;22.60;30.80;;;;;;5063093;28;19940;-52
2024/02/01 08:23:32;;;;;;;;;;;22.60;30.80;;;;;;5061015;28;19931;-56
2024/02/01 08:26:02;;;;;;;;;;;22.60;30.80;;;;;;5062168;28;20367;-57
2024/02/01 08:28:32;;;;;;;;;;;22.70;30.90;;;;;;5063432;28;19931;-58
2024/02/01 08:31:02;;;;;;;;;;;22.70;30.80;;;;;;5067139;28;19970;-56
2024/02/01 08:33:30;;;;;;;;;;;22.70;30.80;;;;;;5060327;28;19931;-53
2024/02/01 08:35:58;;;;;;;;;;;22.70;30.80;;;;;;5060454;28;19990;-56
2024/02/01 08:38:25;;;;;;;;;;;22.80;30.80;;;;;;5059692;28;19931;-55
2024/02/01 08:40:52;;;;;;;;;;;22.80;31.00;;;;;;5067287;28;19940;-53
2024/02/01 08:43:19;;;;;;;;;;;22.80;31.60;;;;;;5041752;28;19974;-56
2024/02/01 08:45:46;;;;;;;;;;;22.90;31.90;;;;;;5064013;28;19944;-50
2024/02/01 08:48:13;;;;;;;;;;;22.90;32.00;;;;;;5061354;28;19958;-52
2024/02/01 08:50:49;;;;;;;;;;;23.00;32.00;;;;;;5059377;28;19933;-54
2024/02/01 08:53:18;;;;;;;;;;;23.00;32.10;;;;;;5060714;28;20211;-55
2024/02/01 08:55:45;;;;;;;;;;;23.00;32.10;;;;;;5064317;28;19968;-57
2024/02/01 08:58:12;;;;;;;;;;;23.10;32.40;;;;;;5056936;28;20015;-53
2024/02/01 09:00:42;;;;;;;;;;;23.10;32.40;;;;;;5068039;28;19936;-55
2024/02/01 09:03:15;;;;;;;;;;;23.20;32.50;;;;;;5060331;28;19931;-56
2024/02/01 09:05:43;;;;;;;;;;;23.20;32.50;;;;;;5063340;28;19928;-56
2024/02/01 09:08:15;;;;;;;;;;;23.30;32.40;;;;;;5057802;28;19929;-53
2024/02/01 09:11:01;;;;;;;;;;;23.30;32.30;;;;;;5060675;28;20054;-57
2024/02/01 09:13:30;;;;;;;;;;;23.40;32.30;;;;;;5039257;28;19925;-54
2024/02/01 09:15:57;;;;;;;;;;;23.40;32.30;;;;;;5058807;28;20415;-57
2024/02/01 09:18:26;;;;;;;;;;;23.40;32.40;;;;;;5037894;28;19939;-53
2024/02/01 09:20:53;;;;;;;;;;;23.50;32.30;;;;;;5059142;28;19982;-52
2024/02/01 09:23:22;;;;;;;;;;;23.50;32.10;;;;;;5059678;28;20413;-53
2024/02/01 09:25:49;;;;;;;;;;;23.50;31.80;;;;;;5064019;28;20000;-57
2024/02/01 09:28:16;;;;;;;;;;;23.50;31.70;;;;;;5061243;28;19933;-53
2024/02/01 09:30:45;;;;;;;;;;;23.60;31.70;;;;;;5062507;28;19928;-54
2024/02/01 09:33:13;;;;;;;;;;;23.60;31.80;;;;;;5061329;28;19929;-57
2024/02/01 09:35:41;;;;;;;;;;;23.60;31.80;;;;;;5061813;28;19955;-56
2024/02/01 09:38:09;;;;;;;;;;;23.70;31.90;;;;;;5063240;28;20037;-58
2024/02/01 09:40:42;;;;;;;;;;;23.70;31.80;;;;;;5062227;28;20012;-54
2024/02/01 09:43:17;;;;;;;;;;;23.70;31.80;;;;;;5061720;28;19991;-54
2024/02/01 09:45:44;;;;;;;;;;;23.80;31.80;;;;;;5061904;28;20353;-55
2024/02/01 09:48:15;;;;;;;;;;;23.80;31.80;;;;;;5066062;28;20011;-56
2024/02/01 09:50:47;;;;;;;;;;;23.80;31.80;;;;;;5042973;28;20007;-54
2024/02/01 09:53:15;;;;;;;;;;;23.90;31.80;;;;;;5061729;28;20370;-54
2024/02/01 09:55:42;;;;;;;;;;;23.90;31.80;;;;;;5059716;28;19939;-53
2024/02/01 09:58:10;;;;;;;;;;;23.90;31.90;;;;;;5066068;28;19925;-52
2024/02/01 10:00:38;;;;;;;;;;;24.00;31.90;;;;;;5063242;28;19928;-53
2024/02/01 10:03:05;;;;;;;;;;;24.00;31.70;;;;;;5056203;28;19932;-55
2024/02/01 10:05:33;;;;;;;;;;;24.10;31.70;;;;;;5060948;28;19931;-50
2024/02/01 10:08:00;;;;;;;;;;;24.10;31.60;;;;;;5063703;28;19925;-49
2024/02/01 10:10:28;;;;;;;;;;;24.10;31.50;;;;;;5064158;28;19990;-54
2024/02/01 10:12:58;;;;;;;;;;;24.10;31.50;;;;;;5048257;28;20381;-57
2024/02/01 10:15:30;;;;;;;;;;;24.20;31.40;;;;;;5061522;28;20324;-58
2024/02/01 10:17:58;;;;;;;;;;;24.20;31.50;;;;;;5062360;28;19970;-55
2024/02/01 10:20:33;;;;;;;;;;;24.20;31.50;;;;;;5056141;28;19925;-58
2024/02/01 10:23:02;;;;;;;;;;;24.20;31.60;;;;;;5063724;28;19939;-57
2024/02/01 10:25:33;;;;;;;;;;;24.30;31.80;;;;;;5064890;28;20373;-54
2024/02/01 10:28:01;;;;;;;;;;;24.30;32.00;;;;;;5050613;28;19978;-55
2024/02/01 10:30:28;;;;;;;;;;;24.30;32.00;;;;;;5059484;28;20024;-57
2024/02/01 10:32:58;;;;;;;;;;;24.30;31.80;;;;;;5063664;28;19983;-56
2024/02/01 10:35:27;;;;;;;;;;;24.30;31.60;;;;;;5063864;28;19987;-51
2024/02/01 10:37:54;;;;;;;;;;;24.30;31.40;;;;;;5047615;28;20025;-54
2024/02/01 10:40:26;;;;;;;;;;;24.30;31.10;;;;;;5063014;28;20029;-54
2024/02/01 10:42:57;;;;;;;;;;;24.30;31.00;;;;;;5061748;28;19943;-57
2024/02/01 10:45:30;;;;;;;;;;;24.30;30.70;;;;;;5065259;28;19976;-52
2024/02/01 10:47:59;;;;;;;;;;;24.40;30.60;;;;;;5061855;28;20375;-55
2024/02/01 10:50:32;;;;;;;;;;;24.40;30.50;;;;;;5033609;28;19929;-51
2024/02/01 10:53:01;;;;;;;;;;;24.40;30.30;;;;;;5069776;28;20023;-56
2024/02/01 10:55:28;;;;;;;;;;;24.40;30.20;;;;;;5068274;28;19929;-53
2024/02/01 10:57:59;;;;;;;;;;;24.50;30.10;;;;;;5065841;28;20600;-55
2024/02/01 11:00:28;;;;;;;;;;;24.50;30.10;;;;;;5061298;28;19925;-52
2024/02/01 11:02:55;;;;;;;;;;;24.60;30.10;;;;;;5067292;28;19925;-57
2024/02/01 11:05:26;;;;;;;;;;;24.60;30.00;;;;;;5065465;28;20166;-52
2024/02/01 11:07:53;;;;;;;;;;;24.60;30.00;;;;;;5070598;28;19935;-59
2024/02/01 11:10:23;;;;;;;;;;;24.70;30.00;;;;;;5064540;28;20659;-54
2024/02/01 11:12:54;;;;;;;;;;;24.70;30.00;;;;;;5062696;28;19994;-62
2024/02/01 11:15:23;;;;;;;;;;;24.70;30.20;;;;;;5067982;28;19932;-66
2024/02/01 11:17:59;;;;;;;;;;;24.80;30.40;;;;;;5066741;28;20413;-66
2024/02/01 11:20:30;;;;;;;;;;;24.80;30.40;;;;;;5065540;28;19970;-58
2024/02/01 11:22:58;;;;;;;;;;;24.80;30.40;;;;;;5071867;28;19999;-54
2024/02/01 11:25:27;;;;;;;;;;;24.80;30.40;;;;;;5058345;28;19964;-61
2024/02/01 11:27:57;;;;;;;;;;;24.90;30.40;;;;;;5065983;28;19986;-55
2024/02/01 11:30:26;;;;;;;;;;;24.90;30.40;;;;;;5070723;28;19951;-53
2024/02/01 11:32:54;;;;;;;;;;;24.90;30.30;;;;;;5066591;28;19924;-54
2024/02/01 11:35:23;;;;;;;;;;;24.90;30.30;;;;;;5069514;28;19971;-56
2024/02/01 11:37:54;;;;;;;;;;;24.90;30.20;;;;;;5064391;28;20313;-53
2024/02/01 11:40:21;;;;;;;;;;;25.00;30.20;;;;;;5066894;28;19928;-52
2024/02/01 11:42:48;;;;;;;;;;;25.00;30.20;;;;;;5069691;28;19970;-52
2024/02/01 11:45:17;;;;;;;;;;;25.00;30.10;;;;;;5067244;28;20318;-49
2024/02/01 11:47:44;;;;;;;;;;;25.10;30.20;;;;;;5040194;28;19925;-51
2024/02/01 11:50:11;;;;;;;;;;;25.10;30.30;;;;;;5065764;28;19925;-54
2024/02/01 11:53:00;;;;;;;;;;;25.10;30.30;;;;;;5060646;28;20036;-52
2024/02/01 11:55:29;;;;;;;;;;;25.10;30.10;;;;;;5059172;28;19932;-57
2024/02/01 11:57:59;;;;;;;;;;;25.10;30.10;;;;;;5048192;28;19932;-55
2024/02/01 12:00:27;;;;;;;;;;;25.10;30.00;;;;;;5063685;28;19932;-51
2024/02/01 12:03:14;;;;;;;;;;;25.10;29.30;;;;;;5064475;28;19994;-52
2024/02/01 12:05:45;;;;;;;;;;;25.00;29.40;;;;;;5060785;28;20060;-55
2024/02/01 12:08:12;;;;;;;;;;;25.00;29.40;;;;;;5067797;28;19924;-54
2024/02/01 12:10:45;;;;;;;;;;;25.00;29.50;;;;;;5064703;28;19956;-51
2024/02/01 12:13:15;;;;;;;;;;;25.00;29.40;;;;;;5063973;28;19978;-55
2024/02/01 12:15:43;;;;;;;;;;;25.00;29.40;;;;;;5062487;28;20019;-55
2024/02/01 12:18:12;;;;;;;;;;;25.00;29.40;;;;;;5064176;28;20289;-56
2024/02/01 12:20:42;;;;;;;;;;;25.00;29.50;;;;;;5060394;28;20015;-53
2024/02/01 12:23:11;;;;;;;;;;;25.00;29.60;;;;;;5059540;28;20133;-51
2024/02/01 12:25:39;;;;;;;;;;;25.00;29.60;;;;;;5058715;28;20263;-52
2024/02/01 12:28:09;;;;;;;;;;;25.00;29.60;;;;;;5061040;28;20073;-57
2024/02/01 12:30:41;;;;;;;;;;;25.00;29.70;;;;;;5064910;28;19932;-57
2024/02/01 12:33:12;;;;;;;;;;;25.10;29.70;;;;;;5062469;28;20436;-59
2024/02/01 12:35:41;;;;;;;;;;;25.00;29.60;;;;;;5068954;28;19932;-55
2024/02/01 12:38:09;;;;;;;;;;;25.10;29.60;;;;;;5064864;28;19940;-53
2024/02/01 12:40:36;;;;;;;;;;;25.10;29.60;;;;;;5063054;28;19928;-56
2024/02/01 12:43:04;;;;;;;;;;;25.10;29.70;;;;;;5060586;28;20393;-54
2024/02/01 12:45:32;;;;;;;;;;;25.10;29.80;;;;;;5066820;28;19940;-55
2024/02/01 12:47:59;;;;;;;;;;;25.10;29.80;;;;;;5063759;28;20038;-51
2024/02/01 12:50:36;;;;;;;;;;;25.10;29.80;;;;;;5065297;28;19924;-56
2024/02/01 12:53:03;;;;;;;;;;;25.10;29.80;;;;;;5053564;28;19924;-53
2024/02/01 12:55:30;;;;;;;;;;;25.10;29.90;;;;;;5065295;28;19931;-54
2024/02/01 12:57:57;;;;;;;;;;;25.10;29.80;;;;;;5058525;28;19929;-53
2024/02/01 13:00:24;;;;;;;;;;;25.10;29.80;;;;;;5057029;28;19970;-53
2024/02/01 13:02:51;;;;;;;;;;;25.10;29.80;;;;;;5060023;28;19936;-52
2024/02/01 13:05:18;;;;;;;;;;;25.10;29.80;;;;;;5062254;28;20036;-56
2024/02/01 13:07:45;;;;;;;;;;;25.10;29.70;;;;;;5061760;28;20328;-52
2024/02/01 13:10:15;;;;;;;;;;;25.10;29.70;;;;;;5066312;28;19932;-55
2024/02/01 13:12:54;;;;;;;;;;;25.10;29.60;;;;;;5063550;28;19928;-56
2024/02/01 13:15:35;;;;;;;;;;;25.10;29.60;;;;;;5066165;28;20003;-54
2024/02/01 13:18:02;;;;;;;;;;;25.10;29.60;;;;;;5065638;28;20006;-55
2024/02/01 13:20:30;;;;;;;;;;;25.10;29.60;;;;;;5063943;28;19928;-52
2024/02/01 13:23:08;;;;;;;;;;;25.10;29.70;;;;;;5068046;28;19928;-55
2024/02/01 13:25:37;;;;;;;;;;;25.10;29.70;;;;;;5065968;28;19939;-56
2024/02/01 13:28:04;;;;;;;;;;;25.10;29.70;;;;;;5059452;28;19925;-55
2024/02/01 13:30:31;;;;;;;;;;;25.10;29.70;;;;;;5064698;28;19990;-55
2024/02/01 13:32:58;;;;;;;;;;;25.10;29.70;;;;;;5060758;28;19939;-53
2024/02/01 13:35:26;;;;;;;;;;;25.10;29.70;;;;;;5057870;28;20649;-54
2024/02/01 13:37:55;;;;;;;;;;;25.10;29.80;;;;;;5059093;28;20029;-51
2024/02/01 13:40:22;;;;;;;;;;;25.10;29.80;;;;;;5064851;28;19924;-51
2024/02/01 13:42:52;;;;;;;;;;;25.10;29.80;;;;;;5061914;28;19998;-53
2024/02/01 13:45:20;;;;;;;;;;;25.20;29.80;;;;;;5064354;28;20451;-49
2024/02/01 13:47:52;;;;;;;;;;;25.20;29.80;;;;;;5046142;28;20026;-56
2024/02/01 13:50:21;;;;;;;;;;;25.20;29.80;;;;;;5067668;28;19944;-53
2024/02/01 13:52:49;;;;;;;;;;;25.20;29.80;;;;;;5062101;28;20328;-54
2024/02/01 13:55:16;;;;;;;;;;;25.20;30.00;;;;;;5046435;28;19925;-52
2024/02/01 13:57:43;;;;;;;;;;;25.20;30.00;;;;;;5059854;28;19928;-54
2024/02/01 14:00:16;;;;;;;;;;;25.30;30.10;;;;;;5064225;28;19938;-53
2024/02/01 14:02:46;;;;;;;;;;;25.20;30.00;;;;;;5060150;28;19933;-56
2024/02/01 14:05:13;;;;;;;;;;;25.30;30.00;;;;;;5047218;28;20050;-50
2024/02/01 14:07:40;;;;;;;;;;;25.30;30.00;;;;;;5060463;28;19929;-50
2024/02/01 14:10:09;;;;;;;;;;;25.30;30.00;;;;;;5060821;28;19924;-50
2024/02/01 14:12:36;;;;;;;;;;;25.30;30.00;;;;;;5045370;28;19932;-52
2024/02/01 14:15:05;;;;;;;;;;;25.30;30.00;;;;;;5065009;28;20266;-52
2024/02/01 14:17:32;;;;;;;;;;;25.30;30.00;;;;;;5065873;28;19925;-55
2024/02/01 14:20:00;;;;;;;;;;;25.30;30.00;;;;;;5061410;28;20015;-53
2024/02/01 14:22:27;;;;;;;;;;;25.30;30.10;;;;;;5056892;28;19990;-52
2024/02/01 14:24:54;;;;;;;;;;;25.30;30.20;;;;;;5061354;28;19925;-53
2024/02/01 14:27:22;;;;;;;;;;;25.30;30.20;;;;;;5060716;28;19928;-52
2024/02/01 14:29:49;;;;;;;;;;;25.30;30.20;;;;;;5057082;28;19929;-54
2024/02/01 14:32:16;;;;;;;;;;;25.30;30.10;;;;;;5059756;28;19929;-55
2024/02/01 14:34:44;;;;;;;;;;;25.20;30.00;;;;;;5064196;28;19939;-54
2024/02/01 14:37:11;;;;;;;;;;;25.20;29.90;;;;;;5060388;28;19979;-56
2024/02/01 14:39:39;;;;;;;;;;;25.20;29.90;;;;;;5060106;28;19932;-55
2024/02/01 14:42:06;;;;;;;;;;;25.10;30.00;;;;;;5056474;28;19932;-53
2024/02/01 14:44:37;;;;;;;;;;;25.10;30.10;;;;;;5066932;28;19935;-55
2024/02/01 14:47:07;;;;;;;;;;;25.10;30.30;;;;;;5057827;28;19936;-51
2024/02/01 14:49:34;;;;;;;;;;;25.10;30.30;;;;;;5054044;28;19931;-51
2024/02/01 14:52:01;;;;;;;;;;;25.10;30.40;;;;;;5052722;28;20283;-50
2024/02/01 14:54:28;;;;;;;;;;;25.10;30.20;;;;;;5067427;28;19962;-49
2024/02/01 14:56:55;;;;;;;;;;;25.10;30.30;;;;;;5062007;28;20027;-46
2024/02/01 14:59:23;;;;;;;;;;;25.10;30.40;;;;;;5062744;28;19939;-49
2024/02/01 15:01:49;;;;;;;;;;;25.10;30.40;;;;;;5066233;28;19982;-50
2024/02/01 15:04:17;;;;;;;;;;;25.00;30.20;;;;;;5064754;28;20289;-52
2024/02/01 15:06:44;;;;;;;;;;;25.00;30.20;;;;;;5060853;28;20264;-49
2024/02/01 15:09:11;;;;;;;;;;;25.00;30.10;;;;;;5061015;28;19932;-45
2024/02/01 15:11:39;;;;;;;;;;;25.10;30.10;;;;;;5065138;28;19924;-52
2024/02/01 15:14:05;;;;;;;;;;;25.10;30.20;;;;;;5070240;28;19928;-47